Portada
METAR-TAF:

METAR-TAF

Aeroports :

Tirupati, Índia

latitud: 13-38-16N, longitud: 79-32-50E, altitud: 107 m

Observació

L'informe es va fer fa 1 hora i 35 minuts, a les 15:30 UTC
Vent 2 kt del Sud/Sud-Est
Temperatura 32°C
Humitat 56%
Pressió 1003 hPa
Visibilitat: 6000 m
Escasses núvols a una alçada de 2000 ft

METAR: VOTP 231530Z 16002KT 6000 FEW020 32/22 Q1003 NOSIG

Hora: 22:35 (17:05 UTC)

Pronòstic

L'informe es va fer fa 3 hores i 5 minuts, a les 14:00 UTC
Pronòstic vàlid del 23 a les 15 UTC al 23 a les 24 UTC
Vent 8 kt del Oest
Visibilitat: 5000 m
Núvols disperses a una alçada de 2000 ft
calitja

TAF: VOTP 231400Z 2315/2324 26008KT 5000 HZ SCT020

Observacions i pronòstics meteorològics de més de 4000 aeroports (METAR i TAF).

Les estacions disponibles són els punts grocs i vermells al mapa.

Posi el ratolí al punt desitjat per veure el nom de l'estació.

Feu clic per veure les observacions i els pronòstics meteorològics.

Per canviar el mapa: feu clic els botons verds amb una creu de color negre per apropar; al botó verd amb un guió per allunyar la imatge; o en les fletxes verdes per a mapes adjacents.


METAR-TAF: